sensor_id;sensor_type;location;lat;lon;timestamp;temperature;humidity
71184;DHT22;58887;51.980;4.464;2023-04-23T00:01:48;9.98;79.89
71184;DHT22;58887;51.980;4.464;2023-04-23T00:04:25;9.97;80.09
71184;DHT22;58887;51.980;4.464;2023-04-23T00:06:53;9.95;80.28
71184;DHT22;58887;51.980;4.464;2023-04-23T00:09:21;9.99;80.41
71184;DHT22;58887;51.980;4.464;2023-04-23T00:11:48;10.11;80.49
71184;DHT22;58887;51.980;4.464;2023-04-23T00:14:17;10.18;80.61
71184;DHT22;58887;51.980;4.464;2023-04-23T00:16:46;10.26;81.14
71184;DHT22;58887;51.980;4.464;2023-04-23T00:19:14;10.35;80.85
71184;DHT22;58887;51.980;4.464;2023-04-23T00:21:39;10.38;80.82
71184;DHT22;58887;51.980;4.464;2023-04-23T00:24:05;10.50;80.74
71184;DHT22;58887;51.980;4.464;2023-04-23T00:26:30;10.56;80.92
71184;DHT22;58887;51.980;4.464;2023-04-23T00:28:56;10.60;80.78
71184;DHT22;58887;51.980;4.464;2023-04-23T00:31:21;10.56;80.54
71184;DHT22;58887;51.980;4.464;2023-04-23T00:33:48;10.57;80.54
71184;DHT22;58887;51.980;4.464;2023-04-23T00:36:15;10.53;80.46
71184;DHT22;58887;51.980;4.464;2023-04-23T00:38:40;10.46;80.67
71184;DHT22;58887;51.980;4.464;2023-04-23T00:41:07;10.46;80.66
71184;DHT22;58887;51.980;4.464;2023-04-23T00:43:33;10.45;80.62
71184;DHT22;58887;51.980;4.464;2023-04-23T00:46:00;10.39;81.26
71184;DHT22;58887;51.980;4.464;2023-04-23T00:48:29;10.42;81.42
71184;DHT22;58887;51.980;4.464;2023-04-23T00:51:04;10.38;81.63
71184;DHT22;58887;51.980;4.464;2023-04-23T00:53:29;10.42;81.83
71184;DHT22;58887;51.980;4.464;2023-04-23T00:56:03;10.45;81.81
71184;DHT22;58887;51.980;4.464;2023-04-23T00:58:32;10.50;81.79
71184;DHT22;58887;51.980;4.464;2023-04-23T01:00:58;10.45;82.09
71184;DHT22;58887;51.980;4.464;2023-04-23T01:03:27;10.48;82.00
71184;DHT22;58887;51.980;4.464;2023-04-23T01:06:00;10.50;81.85
71184;DHT22;58887;51.980;4.464;2023-04-23T01:08:27;10.52;82.00
71184;DHT22;58887;51.980;4.464;2023-04-23T01:11:05;10.49;82.02
71184;DHT22;58887;51.980;4.464;2023-04-23T01:13:34;10.52;82.02
71184;DHT22;58887;51.980;4.464;2023-04-23T01:16:02;10.55;81.96
71184;DHT22;58887;51.980;4.464;2023-04-23T01:18:28;10.53;82.05
71184;DHT22;58887;51.980;4.464;2023-04-23T01:20:54;10.55;82.07
71184;DHT22;58887;51.980;4.464;2023-04-23T01:23:21;10.57;82.05
71184;DHT22;58887;51.980;4.464;2023-04-23T01:25:47;10.63;81.88
71184;DHT22;58887;51.980;4.464;2023-04-23T01:28:13;10.57;81.97
71184;DHT22;58887;51.980;4.464;2023-04-23T01:30:42;10.67;81.82
71184;DHT22;58887;51.980;4.464;2023-04-23T01:33:09;10.67;81.64
71184;DHT22;58887;51.980;4.464;2023-04-23T01:35:36;10.74;81.40
71184;DHT22;58887;51.980;4.464;2023-04-23T01:38:03;10.76;81.13
71184;DHT22;58887;51.980;4.464;2023-04-23T01:40:36;10.79;81.01
71184;DHT22;58887;51.980;4.464;2023-04-23T01:43:05;10.80;80.77
71184;DHT22;58887;51.980;4.464;2023-04-23T01:45:40;10.90;80.68
71184;DHT22;58887;51.980;4.464;2023-04-23T01:48:06;10.84;80.41
71184;DHT22;58887;51.980;4.464;2023-04-23T01:50:33;10.81;80.47
71184;DHT22;58887;51.980;4.464;2023-04-23T01:52:58;10.81;80.41
71184;DHT22;58887;51.980;4.464;2023-04-23T01:55:24;10.89;80.33
71184;DHT22;58887;51.980;4.464;2023-04-23T01:57:49;10.99;79.69
71184;DHT22;58887;51.980;4.464;2023-04-23T02:00:16;11.00;79.30
71184;DHT22;58887;51.980;4.464;2023-04-23T02:02:43;11.04;78.84
71184;DHT22;58887;51.980;4.464;2023-04-23T02:05:14;10.96;78.54
71184;DHT22;58887;51.980;4.464;2023-04-23T02:07:49;11.00;78.24
71184;DHT22;58887;51.980;4.464;2023-04-23T02:10:19;11.01;78.19
71184;DHT22;58887;51.980;4.464;2023-04-23T02:12:50;11.07;78.30
71184;DHT22;58887;51.980;4.464;2023-04-23T02:15:18;11.12;78.02
71184;DHT22;58887;51.980;4.464;2023-04-23T02:17:48;11.04;78.41
71184;DHT22;58887;51.980;4.464;2023-04-23T02:20:17;11.11;78.25
71184;DHT22;58887;51.980;4.464;2023-04-23T02:22:48;11.18;78.28
71184;DHT22;58887;51.980;4.464;2023-04-23T02:25:20;11.07;78.69
71184;DHT22;58887;51.980;4.464;2023-04-23T02:27:56;11.12;78.64
71184;DHT22;58887;51.980;4.464;2023-04-23T02:30:21;11.15;78.46
71184;DHT22;58887;51.980;4.464;2023-04-23T02:32:47;11.07;78.74
71184;DHT22;58887;51.980;4.464;2023-04-23T02:35:13;11.07;79.06
71184;DHT22;58887;51.980;4.464;2023-04-23T02:37:41;10.89;79.17
71184;DHT22;58887;51.980;4.464;2023-04-23T02:40:08;10.99;79.20
71184;DHT22;58887;51.980;4.464;2023-04-23T02:42:37;10.90;79.19
71184;DHT22;58887;51.980;4.464;2023-04-23T02:45:03;10.97;79.22
71184;DHT22;58887;51.980;4.464;2023-04-23T02:47:43;10.87;79.32
71184;DHT22;58887;51.980;4.464;2023-04-23T02:50:10;10.85;79.43
71184;DHT22;58887;51.980;4.464;2023-04-23T02:52:36;10.80;79.56
71184;DHT22;58887;51.980;4.464;2023-04-23T02:55:02;10.74;79.92
71184;DHT22;58887;51.980;4.464;2023-04-23T02:57:29;10.66;80.33
71184;DHT22;58887;51.980;4.464;2023-04-23T02:59:54;10.67;80.26
71184;DHT22;58887;51.980;4.464;2023-04-23T03:02:22;10.69;80.37
71184;DHT22;58887;51.980;4.464;2023-04-23T03:04:47;10.69;80.09
71184;DHT22;58887;51.980;4.464;2023-04-23T03:07:23;10.74;80.13
71184;DHT22;58887;51.980;4.464;2023-04-23T03:09:49;10.74;80.19
71184;DHT22;58887;51.980;4.464;2023-04-23T03:12:15;10.79;80.23
71184;DHT22;58887;51.980;4.464;2023-04-23T03:14:42;10.83;79.97
71184;DHT22;58887;51.980;4.464;2023-04-23T03:17:08;10.81;80.33
71184;DHT22;58887;51.980;4.464;2023-04-23T03:19:36;10.90;80.24
71184;DHT22;58887;51.980;4.464;2023-04-23T03:22:02;10.90;80.12
71184;DHT22;58887;51.980;4.464;2023-04-23T03:24:33;11.01;80.13
71184;DHT22;58887;51.980;4.464;2023-04-23T03:27:17;11.01;79.99
71184;DHT22;58887;51.980;4.464;2023-04-23T03:29:42;10.97;80.18
71184;DHT22;58887;51.980;4.464;2023-04-23T03:32:10;11.03;79.99
71184;DHT22;58887;51.980;4.464;2023-04-23T03:34:38;10.93;80.14
71184;DHT22;58887;51.980;4.464;2023-04-23T03:37:04;10.91;80.44
71184;DHT22;58887;51.980;4.464;2023-04-23T03:39:38;11.04;80.23
71184;DHT22;58887;51.980;4.464;2023-04-23T03:42:03;11.03;80.07
71184;DHT22;58887;51.980;4.464;2023-04-23T03:44:29;10.99;80.38
71184;DHT22;58887;51.980;4.464;2023-04-23T03:46:55;11.06;80.26
71184;DHT22;58887;51.980;4.464;2023-04-23T03:49:22;10.99;80.30
71184;DHT22;58887;51.980;4.464;2023-04-23T03:51:47;11.00;80.57
71184;DHT22;58887;51.980;4.464;2023-04-23T03:54:13;11.07;80.32
71184;DHT22;58887;51.980;4.464;2023-04-23T03:56:38;11.11;79.97
71184;DHT22;58887;51.980;4.464;2023-04-23T03:59:04;11.01;80.46
71184;DHT22;58887;51.980;4.464;2023-04-23T04:01:29;10.94;80.78
71184;DHT22;58887;51.980;4.464;2023-04-23T04:03:57;11.00;80.62
71184;DHT22;58887;51.980;4.464;2023-04-23T04:06:23;10.83;80.90
71184;DHT22;58887;51.980;4.464;2023-04-23T04:08:48;10.90;80.82
71184;DHT22;58887;51.980;4.464;2023-04-23T04:11:14;10.80;81.18
71184;DHT22;58887;51.980;4.464;2023-04-23T04:13:40;10.84;81.42
71184;DHT22;58887;51.980;4.464;2023-04-23T04:16:08;10.81;81.34
71184;DHT22;58887;51.980;4.464;2023-04-23T04:18:38;10.89;81.05
71184;DHT22;58887;51.980;4.464;2023-04-23T04:21:03;10.94;81.02
71184;DHT22;58887;51.980;4.464;2023-04-23T04:23:35;10.90;81.03
71184;DHT22;58887;51.980;4.464;2023-04-23T04:26:01;10.94;80.87
71184;DHT22;58887;51.980;4.464;2023-04-23T04:28:27;10.99;80.78
71184;DHT22;58887;51.980;4.464;2023-04-23T04:30:54;10.96;80.72
71184;DHT22;58887;51.980;4.464;2023-04-23T04:33:24;10.91;80.75
71184;DHT22;58887;51.980;4.464;2023-04-23T04:35:50;11.00;80.63
71184;DHT22;58887;51.980;4.464;2023-04-23T04:38:17;11.06;80.31
71184;DHT22;58887;51.980;4.464;2023-04-23T04:40:43;11.04;80.24
71184;DHT22;58887;51.980;4.464;2023-04-23T04:43:10;10.91;80.41
71184;DHT22;58887;51.980;4.464;2023-04-23T04:45:36;10.89;80.76
71184;DHT22;58887;51.980;4.464;2023-04-23T04:48:01;10.89;80.71
71184;DHT22;58887;51.980;4.464;2023-04-23T04:50:28;10.84;80.73
71184;DHT22;58887;51.980;4.464;2023-04-23T04:52:55;10.77;81.11
71184;DHT22;58887;51.980;4.464;2023-04-23T04:55:22;10.81;80.86
71184;DHT22;58887;51.980;4.464;2023-04-23T04:57:54;10.83;80.67
71184;DHT22;58887;51.980;4.464;2023-04-23T05:00:26;10.83;80.78
71184;DHT22;58887;51.980;4.464;2023-04-23T05:02:59;10.85;80.70
71184;DHT22;58887;51.980;4.464;2023-04-23T05:05:26;10.87;80.77
71184;DHT22;58887;51.980;4.464;2023-04-23T05:07:58;10.96;80.60
71184;DHT22;58887;51.980;4.464;2023-04-23T05:10:28;10.84;80.74
71184;DHT22;58887;51.980;4.464;2023-04-23T05:12:56;10.87;80.84
71184;DHT22;58887;51.980;4.464;2023-04-23T05:15:22;10.90;80.52
71184;DHT22;58887;51.980;4.464;2023-04-23T05:17:49;10.85;80.50
71184;DHT22;58887;51.980;4.464;2023-04-23T05:20:21;10.73;80.88
71184;DHT22;58887;51.980;4.464;2023-04-23T05:22:58;10.71;80.99
71184;DHT22;58887;51.980;4.464;2023-04-23T05:25:24;10.74;80.79
71184;DHT22;58887;51.980;4.464;2023-04-23T05:27:52;10.80;80.76
71184;DHT22;58887;51.980;4.464;2023-04-23T05:30:18;10.80;80.61
71184;DHT22;58887;51.980;4.464;2023-04-23T05:32:49;10.85;80.62
71184;DHT22;58887;51.980;4.464;2023-04-23T05:35:14;10.85;80.57
71184;DHT22;58887;51.980;4.464;2023-04-23T05:37:57;10.94;80.51
71184;DHT22;58887;51.980;4.464;2023-04-23T05:40:23;10.99;80.36
71184;DHT22;58887;51.980;4.464;2023-04-23T05:42:52;11.11;80.08
71184;DHT22;58887;51.980;4.464;2023-04-23T05:45:19;11.22;79.61
71184;DHT22;58887;51.980;4.464;2023-04-23T05:47:46;11.32;79.26
71184;DHT22;58887;51.980;4.464;2023-04-23T05:50:20;11.28;79.29
71184;DHT22;58887;51.980;4.464;2023-04-23T05:52:46;11.35;79.07
71184;DHT22;58887;51.980;4.464;2023-04-23T05:55:25;11.48;78.77
71184;DHT22;58887;51.980;4.464;2023-04-23T05:58:01;11.55;78.62
71184;DHT22;58887;51.980;4.464;2023-04-23T06:00:42;11.58;78.34
71184;DHT22;58887;51.980;4.464;2023-04-23T06:03:11;11.57;78.60
71184;DHT22;58887;51.980;4.464;2023-04-23T06:05:37;11.43;78.76
71184;DHT22;58887;51.980;4.464;2023-04-23T06:08:03;11.55;78.44
71184;DHT22;58887;51.980;4.464;2023-04-23T06:10:31;11.43;78.64
71184;DHT22;58887;51.980;4.464;2023-04-23T06:12:57;11.61;78.60
71184;DHT22;58887;51.980;4.464;2023-04-23T06:15:22;11.62;78.46
71184;DHT22;58887;51.980;4.464;2023-04-23T06:17:56;11.68;78.02
71184;DHT22;58887;51.980;4.464;2023-04-23T06:20:24;11.63;78.47
71184;DHT22;58887;51.980;4.464;2023-04-23T06:22:50;11.69;78.27
71184;DHT22;58887;51.980;4.464;2023-04-23T06:25:15;11.75;78.33
71184;DHT22;58887;51.980;4.464;2023-04-23T06:27:42;11.68;78.61
71184;DHT22;58887;51.980;4.464;2023-04-23T06:30:07;11.83;78.41
71184;DHT22;58887;51.980;4.464;2023-04-23T06:32:35;11.90;78.02
71184;DHT22;58887;51.980;4.464;2023-04-23T06:35:03;12.03;77.81
71184;DHT22;58887;51.980;4.464;2023-04-23T06:37:30;12.09;77.76
71184;DHT22;58887;51.980;4.464;2023-04-23T06:39:58;12.23;77.35
71184;DHT22;58887;51.980;4.464;2023-04-23T06:42:24;12.28;77.33
71184;DHT22;58887;51.980;4.464;2023-04-23T06:44:49;12.34;76.90
71184;DHT22;58887;51.980;4.464;2023-04-23T06:47:16;12.33;76.81
71184;DHT22;58887;51.980;4.464;2023-04-23T06:49:41;12.47;76.61
71184;DHT22;58887;51.980;4.464;2023-04-23T06:52:11;12.44;76.58
71184;DHT22;58887;51.980;4.464;2023-04-23T06:54:40;12.67;76.18
71184;DHT22;58887;51.980;4.464;2023-04-23T06:57:12;12.75;75.74
71184;DHT22;58887;51.980;4.464;2023-04-23T06:59:37;12.67;76.15
71184;DHT22;58887;51.980;4.464;2023-04-23T07:02:10;12.99;75.58
71184;DHT22;58887;51.980;4.464;2023-04-23T07:04:36;13.17;75.00
71184;DHT22;58887;51.980;4.464;2023-04-23T07:07:08;13.08;75.34
71184;DHT22;58887;51.980;4.464;2023-04-23T07:09:36;13.12;75.20
71184;DHT22;58887;51.980;4.464;2023-04-23T07:12:02;13.37;75.02
71184;DHT22;58887;51.980;4.464;2023-04-23T07:14:34;13.37;74.58
71184;DHT22;58887;51.980;4.464;2023-04-23T07:17:00;13.51;74.42
71184;DHT22;58887;51.980;4.464;2023-04-23T07:19:25;13.75;74.27
71184;DHT22;58887;51.980;4.464;2023-04-23T07:21:51;13.94;73.41
71184;DHT22;58887;51.980;4.464;2023-04-23T07:24:23;14.00;72.72
71184;DHT22;58887;51.980;4.464;2023-04-23T07:26:50;14.11;72.43
71184;DHT22;58887;51.980;4.464;2023-04-23T07:29:16;14.09;72.51
71184;DHT22;58887;51.980;4.464;2023-04-23T07:31:43;13.88;72.54
71184;DHT22;58887;51.980;4.464;2023-04-23T07:34:09;14.00;72.34
71184;DHT22;58887;51.980;4.464;2023-04-23T07:36:36;14.12;72.14
71184;DHT22;58887;51.980;4.464;2023-04-23T07:39:01;14.30;72.21
71184;DHT22;58887;51.980;4.464;2023-04-23T07:41:31;14.37;71.18
71184;DHT22;58887;51.980;4.464;2023-04-23T07:43:57;14.30;71.49
71184;DHT22;58887;51.980;4.464;2023-04-23T07:46:23;14.06;72.14
71184;DHT22;58887;51.980;4.464;2023-04-23T07:48:48;14.21;72.22
71184;DHT22;58887;51.980;4.464;2023-04-23T07:51:25;14.52;71.39
71184;DHT22;58887;51.980;4.464;2023-04-23T07:54:05;14.57;71.36
71184;DHT22;58887;51.980;4.464;2023-04-23T07:56:30;14.77;71.14
71184;DHT22;58887;51.980;4.464;2023-04-23T07:58:57;15.03;71.14
71184;DHT22;58887;51.980;4.464;2023-04-23T08:01:23;15.01;69.20
71184;DHT22;58887;51.980;4.464;2023-04-23T08:03:49;14.95;70.02
71184;DHT22;58887;51.980;4.464;2023-04-23T08:06:15;15.17;70.56
71184;DHT22;58887;51.980;4.464;2023-04-23T08:08:43;14.86;69.70
71184;DHT22;58887;51.980;4.464;2023-04-23T08:11:16;15.11;69.76
71184;DHT22;58887;51.980;4.464;2023-04-23T08:13:51;15.28;69.20
71184;DHT22;58887;51.980;4.464;2023-04-23T08:16:21;15.44;69.67
71184;DHT22;58887;51.980;4.464;2023-04-23T08:18:47;15.45;68.81
71184;DHT22;58887;51.980;4.464;2023-04-23T08:21:14;15.63;68.90
71184;DHT22;58887;51.980;4.464;2023-04-23T08:23:40;15.67;68.19
71184;DHT22;58887;51.980;4.464;2023-04-23T08:26:08;15.76;68.07
71184;DHT22;58887;51.980;4.464;2023-04-23T08:28:36;15.81;67.82
71184;DHT22;58887;51.980;4.464;2023-04-23T08:31:18;15.83;67.19
71184;DHT22;58887;51.980;4.464;2023-04-23T08:33:53;15.90;67.73
71184;DHT22;58887;51.980;4.464;2023-04-23T08:36:28;15.83;67.91
71184;DHT22;58887;51.980;4.464;2023-04-23T08:38:55;15.96;66.75
71184;DHT22;58887;51.980;4.464;2023-04-23T08:41:26;15.83;67.13
71184;DHT22;58887;51.980;4.464;2023-04-23T08:44:16;15.70;68.11
71184;DHT22;58887;51.980;4.464;2023-04-23T08:46:43;15.90;67.77
71184;DHT22;58887;51.980;4.464;2023-04-23T08:49:15;16.25;66.29
71184;DHT22;58887;51.980;4.464;2023-04-23T08:52:34;16.64;64.86
71184;DHT22;58887;51.980;4.464;2023-04-23T08:54:53;16.73;65.35
71184;DHT22;58887;51.980;4.464;2023-04-23T08:57:23;16.75;64.19
71184;DHT22;58887;51.980;4.464;2023-04-23T08:59:50;17.06;63.99
71184;DHT22;58887;51.980;4.464;2023-04-23T09:02:16;17.51;62.62
71184;DHT22;58887;51.980;4.464;2023-04-23T09:04:44;16.91;62.34
71184;DHT22;58887;51.980;4.464;2023-04-23T09:07:11;17.18;62.42
71184;DHT22;58887;51.980;4.464;2023-04-23T09:09:38;17.34;62.34
71184;DHT22;58887;51.980;4.464;2023-04-23T09:12:07;17.85;60.07
71184;DHT22;58887;51.980;4.464;2023-04-23T09:14:35;17.73;60.47
71184;DHT22;58887;51.980;4.464;2023-04-23T09:17:03;17.43;61.76
71184;DHT22;58887;51.980;4.464;2023-04-23T09:19:29;17.43;60.95
71184;DHT22;58887;51.980;4.464;2023-04-23T09:21:57;17.77;60.49
71184;DHT22;58887;51.980;4.464;2023-04-23T09:24:33;17.75;60.29
71184;DHT22;58887;51.980;4.464;2023-04-23T09:26:58;17.82;60.04
71184;DHT22;58887;51.980;4.464;2023-04-23T09:29:38;17.92;60.48
71184;DHT22;58887;51.980;4.464;2023-04-23T09:32:42;17.97;59.81
71184;DHT22;58887;51.980;4.464;2023-04-23T09:35:12;18.01;61.16
71184;DHT22;58887;51.980;4.464;2023-04-23T09:37:43;18.33;59.80
71184;DHT22;58887;51.980;4.464;2023-04-23T09:40:15;17.85;61.68
71184;DHT22;58887;51.980;4.464;2023-04-23T09:42:47;18.26;61.00
71184;DHT22;58887;51.980;4.464;2023-04-23T09:45:14;18.55;60.07
71184;DHT22;58887;51.980;4.464;2023-04-23T09:47:49;18.74;60.71
71184;DHT22;58887;51.980;4.464;2023-04-23T09:50:19;18.71;60.32
71184;DHT22;58887;51.980;4.464;2023-04-23T09:53:00;18.28;58.46
71184;DHT22;58887;51.980;4.464;2023-04-23T09:55:33;17.71;59.70
71184;DHT22;58887;51.980;4.464;2023-04-23T09:58:06;17.97;59.96
71184;DHT22;58887;51.980;4.464;2023-04-23T10:00:33;18.60;58.92
71184;DHT22;58887;51.980;4.464;2023-04-23T10:02:59;18.32;58.32
71184;DHT22;58887;51.980;4.464;2023-04-23T10:05:25;18.45;57.68
71184;DHT22;58887;51.980;4.464;2023-04-23T10:07:51;18.39;58.69
71184;DHT22;58887;51.980;4.464;2023-04-23T10:10:18;18.48;58.08
71184;DHT22;58887;51.980;4.464;2023-04-23T10:12:45;18.55;59.87
71184;DHT22;58887;51.980;4.464;2023-04-23T10:15:12;18.49;59.14
71184;DHT22;58887;51.980;4.464;2023-04-23T10:17:39;18.11;59.92
71184;DHT22;58887;51.980;4.464;2023-04-23T10:20:07;18.26;58.62
71184;DHT22;58887;51.980;4.464;2023-04-23T10:22:34;18.06;59.23
71184;DHT22;58887;51.980;4.464;2023-04-23T10:25:04;17.80;60.17
71184;DHT22;58887;51.980;4.464;2023-04-23T10:27:40;17.87;60.55
71184;DHT22;58887;51.980;4.464;2023-04-23T10:30:07;17.57;60.88
71184;DHT22;58887;51.980;4.464;2023-04-23T10:32:33;17.87;59.99
71184;DHT22;58887;51.980;4.464;2023-04-23T10:34:59;17.92;60.29
71184;DHT22;58887;51.980;4.464;2023-04-23T10:37:25;17.90;60.67
71184;DHT22;58887;51.980;4.464;2023-04-23T10:40:09;17.91;59.09
71184;DHT22;58887;51.980;4.464;2023-04-23T10:42:44;18.12;59.13
71184;DHT22;58887;51.980;4.464;2023-04-23T10:45:18;18.11;59.38
71184;DHT22;58887;51.980;4.464;2023-04-23T10:47:45;18.46;58.36
71184;DHT22;58887;51.980;4.464;2023-04-23T10:50:27;18.25;58.59
71184;DHT22;58887;51.980;4.464;2023-04-23T10:52:56;18.30;57.86
71184;DHT22;58887;51.980;4.464;2023-04-23T10:55:30;18.55;57.51
71184;DHT22;58887;51.980;4.464;2023-04-23T10:57:57;18.08;58.63
71184;DHT22;58887;51.980;4.464;2023-04-23T11:00:44;17.98;59.10
71184;DHT22;58887;51.980;4.464;2023-04-23T11:03:35;17.74;59.16
71184;DHT22;58887;51.980;4.464;2023-04-23T11:06:05;17.75;58.89
71184;DHT22;58887;51.980;4.464;2023-04-23T11:08:34;17.70;58.16
71184;DHT22;58887;51.980;4.464;2023-04-23T11:11:08;17.60;58.58
71184;DHT22;58887;51.980;4.464;2023-04-23T11:13:57;17.43;59.42
71184;DHT22;58887;51.980;4.464;2023-04-23T11:16:23;17.36;58.51
71184;DHT22;58887;51.980;4.464;2023-04-23T11:19:02;17.53;58.82
71184;DHT22;58887;51.980;4.464;2023-04-23T11:22:04;17.75;58.59
71184;DHT22;58887;51.980;4.464;2023-04-23T11:24:39;17.91;56.78
71184;DHT22;58887;51.980;4.464;2023-04-23T11:27:14;17.88;58.18
71184;DHT22;58887;51.980;4.464;2023-04-23T11:30:01;18.30;57.78
71184;DHT22;58887;51.980;4.464;2023-04-23T11:32:28;18.09;56.82
71184;DHT22;58887;51.980;4.464;2023-04-23T11:34:54;18.06;57.99
71184;DHT22;58887;51.980;4.464;2023-04-23T11:37:20;18.24;56.53
71184;DHT22;58887;51.980;4.464;2023-04-23T11:39:46;18.38;56.60
71184;DHT22;58887;51.980;4.464;2023-04-23T11:42:12;18.57;55.64
71184;DHT22;58887;51.980;4.464;2023-04-23T11:44:43;18.86;54.81
71184;DHT22;58887;51.980;4.464;2023-04-23T11:47:11;18.79;54.44
71184;DHT22;58887;51.980;4.464;2023-04-23T11:49:42;19.32;54.29
71184;DHT22;58887;51.980;4.464;2023-04-23T11:52:08;19.54;52.54
71184;DHT22;58887;51.980;4.464;2023-04-23T11:54:34;19.73;52.38
71184;DHT22;58887;51.980;4.464;2023-04-23T11:57:10;20.03;51.63
71184;DHT22;58887;51.980;4.464;2023-04-23T11:59:36;20.49;49.48
71184;DHT22;58887;51.980;4.464;2023-04-23T12:02:01;20.67;51.33
71184;DHT22;58887;51.980;4.464;2023-04-23T12:04:30;21.27;49.03
71184;DHT22;58887;51.980;4.464;2023-04-23T12:07:14;20.27;48.69
71184;DHT22;58887;51.980;4.464;2023-04-23T12:09:39;19.36;51.57
71184;DHT22;58887;51.980;4.464;2023-04-23T12:12:05;18.50;53.91
71184;DHT22;58887;51.980;4.464;2023-04-23T12:14:35;18.38;54.21
71184;DHT22;58887;51.980;4.464;2023-04-23T12:17:09;18.32;54.77
71184;DHT22;58887;51.980;4.464;2023-04-23T12:19:34;17.88;55.92
71184;DHT22;58887;51.980;4.464;2023-04-23T12:22:02;18.05;55.93
71184;DHT22;58887;51.980;4.464;2023-04-23T12:24:48;17.98;56.02
71184;DHT22;58887;51.980;4.464;2023-04-23T12:27:20;18.19;55.91
71184;DHT22;58887;51.980;4.464;2023-04-23T12:29:47;18.13;56.44
71184;DHT22;58887;51.980;4.464;2023-04-23T12:32:14;17.85;57.13
71184;DHT22;58887;51.980;4.464;2023-04-23T12:34:55;17.55;58.31
71184;DHT22;58887;51.980;4.464;2023-04-23T12:37:29;17.41;59.21
71184;DHT22;58887;51.980;4.464;2023-04-23T12:39:55;17.13;60.03
71184;DHT22;58887;51.980;4.464;2023-04-23T12:42:23;16.18;68.53
71184;DHT22;58887;51.980;4.464;2023-04-23T12:44:51;15.72;71.43
71184;DHT22;58887;51.980;4.464;2023-04-23T12:47:20;15.49;72.36
71184;DHT22;58887;51.980;4.464;2023-04-23T12:49:48;15.32;72.61
71184;DHT22;58887;51.980;4.464;2023-04-23T12:52:18;15.23;72.60
71184;DHT22;58887;51.980;4.464;2023-04-23T12:54:43;15.14;71.17
71184;DHT22;58887;51.980;4.464;2023-04-23T12:57:12;15.10;70.22
71184;DHT22;58887;51.980;4.464;2023-04-23T12:59:42;15.01;70.04
71184;DHT22;58887;51.980;4.464;2023-04-23T13:02:13;14.98;70.87
71184;DHT22;58887;51.980;4.464;2023-04-23T13:04:39;15.03;72.07
71184;DHT22;58887;51.980;4.464;2023-04-23T13:07:10;15.03;70.67
71184;DHT22;58887;51.980;4.464;2023-04-23T13:09:39;15.31;69.54
71184;DHT22;58887;51.980;4.464;2023-04-23T13:12:04;15.48;70.98
71184;DHT22;58887;51.980;4.464;2023-04-23T13:14:37;15.69;69.87
71184;DHT22;58887;51.980;4.464;2023-04-23T13:17:02;15.69;69.63
71184;DHT22;58887;51.980;4.464;2023-04-23T13:19:30;15.63;70.11
71184;DHT22;58887;51.980;4.464;2023-04-23T13:21:55;15.58;70.86
71184;DHT22;58887;51.980;4.464;2023-04-23T13:24:26;15.66;70.44
71184;DHT22;58887;51.980;4.464;2023-04-23T13:26:51;15.87;69.58
71184;DHT22;58887;51.980;4.464;2023-04-23T13:29:23;15.69;69.28
71184;DHT22;58887;51.980;4.464;2023-04-23T13:31:48;15.69;70.21
71184;DHT22;58887;51.980;4.464;2023-04-23T13:34:14;15.69;69.13
71184;DHT22;58887;51.980;4.464;2023-04-23T13:36:39;15.67;69.42
71184;DHT22;58887;51.980;4.464;2023-04-23T13:39:09;15.69;70.13
71184;DHT22;58887;51.980;4.464;2023-04-23T13:41:37;15.73;69.45
71184;DHT22;58887;51.980;4.464;2023-04-23T13:44:10;15.48;69.87
71184;DHT22;58887;51.980;4.464;2023-04-23T13:47:00;15.48;71.01
71184;DHT22;58887;51.980;4.464;2023-04-23T13:49:31;15.62;71.56
71184;DHT22;58887;51.980;4.464;2023-04-23T13:51:58;15.61;71.40
71184;DHT22;58887;51.980;4.464;2023-04-23T13:54:36;15.52;71.28
71184;DHT22;58887;51.980;4.464;2023-04-23T13:57:04;15.56;71.25
71184;DHT22;58887;51.980;4.464;2023-04-23T13:59:30;15.41;71.77
71184;DHT22;58887;51.980;4.464;2023-04-23T14:01:56;15.48;72.28
71184;DHT22;58887;51.980;4.464;2023-04-23T14:04:23;15.58;71.70
71184;DHT22;58887;51.980;4.464;2023-04-23T14:06:49;15.55;72.29
71184;DHT22;58887;51.980;4.464;2023-04-23T14:09:17;15.41;71.78
71184;DHT22;58887;51.980;4.464;2023-04-23T14:11:44;15.41;72.15
71184;DHT22;58887;51.980;4.464;2023-04-23T14:14:09;15.34;72.08
71184;DHT22;58887;51.980;4.464;2023-04-23T14:16:35;15.17;72.21
71184;DHT22;58887;51.980;4.464;2023-04-23T14:19:00;15.17;72.99
71184;DHT22;58887;51.980;4.464;2023-04-23T14:21:26;15.14;73.20
71184;DHT22;58887;51.980;4.464;2023-04-23T14:24:08;15.03;73.84
71184;DHT22;58887;51.980;4.464;2023-04-23T14:26:37;14.86;74.25
71184;DHT22;58887;51.980;4.464;2023-04-23T14:30:02;14.59;74.81
71184;DHT22;58887;51.980;4.464;2023-04-23T14:32:03;14.30;75.96
71184;DHT22;58887;51.980;4.464;2023-04-23T14:34:30;14.36;75.35
71184;DHT22;58887;51.980;4.464;2023-04-23T14:36:56;14.28;75.80
71184;DHT22;58887;51.980;4.464;2023-04-23T14:39:22;14.22;76.48
71184;DHT22;58887;51.980;4.464;2023-04-23T14:41:50;14.02;77.16
71184;DHT22;58887;51.980;4.464;2023-04-23T14:44:15;14.06;76.98
71184;DHT22;58887;51.980;4.464;2023-04-23T14:46:41;14.09;77.82
71184;DHT22;58887;51.980;4.464;2023-04-23T14:49:06;14.19;78.21
71184;DHT22;58887;51.980;4.464;2023-04-23T14:51:33;14.09;77.04
71184;DHT22;58887;51.980;4.464;2023-04-23T14:53:58;13.95;77.70
71184;DHT22;58887;51.980;4.464;2023-04-23T14:56:27;13.73;77.23
71184;DHT22;58887;51.980;4.464;2023-04-23T14:58:53;13.81;77.92
71184;DHT22;58887;51.980;4.464;2023-04-23T15:01:33;13.91;77.53
71184;DHT22;58887;51.980;4.464;2023-04-23T15:03:59;13.89;77.20
71184;DHT22;58887;51.980;4.464;2023-04-23T15:06:25;13.84;77.04
71184;DHT22;58887;51.980;4.464;2023-04-23T15:08:59;13.87;76.64
71184;DHT22;58887;51.980;4.464;2023-04-23T15:11:25;13.88;76.69
71184;DHT22;58887;51.980;4.464;2023-04-23T15:14:29;13.74;76.78
71184;DHT22;58887;51.980;4.464;2023-04-23T15:16:58;13.78;77.13
71184;DHT22;58887;51.980;4.464;2023-04-23T15:19:28;13.68;76.65
71184;DHT22;58887;51.980;4.464;2023-04-23T15:22:00;13.74;76.77
71184;DHT22;58887;51.980;4.464;2023-04-23T15:24:27;13.78;77.19
71184;DHT22;58887;51.980;4.464;2023-04-23T15:26:53;13.85;76.96
71184;DHT22;58887;51.980;4.464;2023-04-23T15:29:25;13.97;76.87
71184;DHT22;58887;51.980;4.464;2023-04-23T15:32:01;13.94;76.87
71184;DHT22;58887;51.980;4.464;2023-04-23T15:34:28;14.16;76.89
71184;DHT22;58887;51.980;4.464;2023-04-23T15:36:53;14.28;76.70
71184;DHT22;58887;51.980;4.464;2023-04-23T15:39:25;14.19;75.97
71184;DHT22;58887;51.980;4.464;2023-04-23T15:41:51;14.24;76.14
71184;DHT22;58887;51.980;4.464;2023-04-23T15:44:20;14.32;76.12